createdAt,value
2023-03-15T00:00:43.786Z,-0.05
2023-03-15T00:01:43.789Z,-2.30
2023-03-15T00:02:43.900Z,-2.30
2023-03-15T00:03:43.817Z,3.82
2023-03-15T00:04:43.730Z,0.92
2023-03-15T00:05:43.734Z,1.24
2023-03-15T00:06:43.719Z,-0.05
2023-03-15T00:07:43.709Z,1.24
2023-03-15T00:08:43.726Z,1.24
2023-03-15T00:09:43.693Z,1.24
2023-03-15T00:10:43.691Z,3.50
2023-03-15T00:11:43.684Z,0.92
2023-03-15T00:12:43.666Z,-0.05
2023-03-15T00:13:43.654Z,-0.37
2023-03-15T00:14:43.642Z,1.24
2023-03-15T00:15:43.655Z,1.24
2023-03-15T00:16:44.392Z,1.56
2023-03-15T00:17:43.611Z,1.24
2023-03-15T00:18:43.596Z,2.53
2023-03-15T00:19:43.594Z,1.88
2023-03-15T00:20:43.580Z,3.50
2023-03-15T00:21:43.585Z,-1.02
2023-03-15T00:22:43.562Z,-0.69
2023-03-15T00:23:43.553Z,0.60
2023-03-15T00:24:43.535Z,0.60
2023-03-15T00:25:43.526Z,0.60
2023-03-15T00:26:43.866Z,1.24
2023-03-15T00:27:43.517Z,3.50
2023-03-15T00:28:43.511Z,-1.98
2023-03-15T00:29:43.491Z,0.92
2023-03-15T00:30:43.480Z,-1.66
2023-03-15T00:32:54.930Z,1.24
2023-03-15T00:33:55.892Z,-1.34
2023-03-15T00:34:55.885Z,1.56
2023-03-15T00:35:55.906Z,1.24
2023-03-15T00:36:56.735Z,0.60
2023-03-15T00:37:55.847Z,0.27
2023-03-15T00:38:55.846Z,0.27
2023-03-15T00:39:55.838Z,1.24
2023-03-15T00:40:55.829Z,-1.34
2023-03-15T00:41:56.190Z,0.60
2023-03-15T00:42:55.806Z,1.88
2023-03-15T00:43:55.805Z,0.60
2023-03-15T00:44:55.797Z,-0.69
2023-03-15T00:45:55.781Z,-1.98
2023-03-15T00:46:56.419Z,0.92
2023-03-15T00:47:55.750Z,3.50
2023-03-15T00:48:55.754Z,1.24
2023-03-15T00:49:55.735Z,0.92
2023-03-15T00:50:55.739Z,0.92
2023-03-15T00:51:56.021Z,3.50
2023-03-15T00:52:55.718Z,-1.66
2023-03-15T00:53:55.688Z,-0.37
2023-03-15T00:54:55.717Z,0.60
2023-03-15T00:55:55.668Z,-1.34
2023-03-15T00:56:55.987Z,0.92
2023-03-15T00:57:55.646Z,1.24
2023-03-15T00:58:55.672Z,0.60
2023-03-15T00:59:55.647Z,1.56
2023-03-15T01:00:55.631Z,0.92
2023-03-15T01:01:55.981Z,2.53
2023-03-15T01:02:55.667Z,-0.05
2023-03-15T01:03:55.596Z,1.88
2023-03-15T01:04:55.597Z,1.56
2023-03-15T01:05:55.584Z,1.24
2023-03-15T01:06:55.910Z,1.24
2023-03-15T01:07:55.556Z,1.56
2023-03-15T01:10:06.804Z,-0.37
2023-03-15T01:11:07.782Z,1.24
2023-03-15T01:12:08.054Z,3.50
2023-03-15T01:13:07.771Z,0.60
2023-03-15T01:14:07.763Z,-0.69
2023-03-15T01:15:07.757Z,4.79
2023-03-15T01:16:07.825Z,0.92
2023-03-15T01:17:08.208Z,1.24
2023-03-15T01:18:07.774Z,1.24
2023-03-15T01:19:07.718Z,3.17
2023-03-15T01:20:07.707Z,3.50
2023-03-15T01:21:07.718Z,1.56
2023-03-15T01:22:07.995Z,1.24
2023-03-15T01:23:14.209Z,1.88
2023-03-15T01:24:07.673Z,0.27
2023-03-15T01:25:07.660Z,-1.02
2023-03-15T01:26:07.664Z,0.92
2023-03-15T01:27:07.670Z,2.85
2023-03-15T01:28:07.626Z,1.88
2023-03-15T01:29:07.619Z,1.24
2023-03-15T01:30:07.608Z,-0.05
2023-03-15T01:31:07.616Z,-1.66
2023-03-15T01:32:07.982Z,1.56
2023-03-15T01:33:07.568Z,0.27
2023-03-15T01:34:07.572Z,-0.37
2023-03-15T01:35:07.568Z,-0.37
2023-03-15T01:36:07.607Z,0.92
2023-03-15T01:37:07.941Z,2.53
2023-03-15T01:38:07.523Z,0.92
2023-03-15T01:39:07.504Z,3.17
2023-03-15T01:40:07.502Z,1.56
2023-03-15T01:41:07.504Z,1.56
2023-03-15T01:42:07.795Z,1.24
2023-03-15T01:43:07.464Z,1.56
2023-03-15T01:44:07.475Z,1.56
2023-03-15T01:45:07.468Z,-2.63
2023-03-15T01:46:07.458Z,3.17
2023-03-15T01:47:07.833Z,1.88
2023-03-15T01:48:07.448Z,4.79
2023-03-15T01:49:07.406Z,0.92
2023-03-15T01:50:07.402Z,1.56
2023-03-15T01:51:07.407Z,0.92
2023-03-15T01:52:07.770Z,1.88
2023-03-15T01:53:07.379Z,1.56
2023-03-15T01:54:07.371Z,-0.05
2023-03-15T01:55:07.344Z,1.24
2023-03-15T01:56:07.373Z,3.82
2023-03-15T01:57:08.019Z,-0.69
2023-03-15T01:58:07.334Z,-0.05
2023-03-15T01:59:07.307Z,0.60
2023-03-15T02:00:07.300Z,4.46
2023-03-15T02:01:07.336Z,1.56
2023-03-15T02:02:07.661Z,-1.34
2023-03-15T02:03:07.266Z,2.21
2023-03-15T02:04:07.293Z,2.53
2023-03-15T02:05:07.259Z,1.88
2023-03-15T02:06:07.245Z,1.88
2023-03-15T02:07:07.541Z,6.07
2023-03-15T02:08:07.236Z,1.88
2023-03-15T02:09:07.203Z,5.75
2023-03-15T02:10:07.226Z,0.60
2023-03-15T02:11:07.198Z,1.56
2023-03-15T02:12:07.486Z,3.50
2023-03-15T02:13:07.167Z,1.88
2023-03-15T02:14:07.182Z,2.53
2023-03-15T02:15:07.149Z,1.56
2023-03-15T02:16:07.193Z,1.88
2023-03-15T02:17:07.473Z,1.88
2023-03-15T02:18:07.124Z,0.27
2023-03-15T02:19:07.110Z,1.56
2023-03-15T02:20:07.125Z,1.56
2023-03-15T02:21:07.081Z,2.21
2023-03-15T02:22:07.428Z,0.60
2023-03-15T02:23:07.070Z,-0.05
2023-03-15T02:24:07.059Z,1.24
2023-03-15T02:25:07.048Z,1.56
2023-03-15T02:26:07.067Z,2.21
2023-03-15T02:27:07.431Z,1.24
2023-03-15T02:28:07.035Z,4.14
2023-03-15T02:29:07.014Z,2.21
2023-03-15T02:30:07.014Z,2.21
2023-03-15T02:31:06.987Z,3.50
2023-03-15T02:32:07.542Z,0.92
2023-03-15T02:33:06.973Z,5.11
2023-03-15T02:34:06.962Z,4.14
2023-03-15T02:35:06.962Z,0.60
2023-03-15T02:36:06.995Z,0.92
2023-03-15T02:37:07.275Z,4.14
2023-03-15T02:38:06.931Z,1.24
2023-03-15T02:39:06.914Z,0.60
2023-03-15T02:40:06.911Z,0.92
2023-03-15T02:41:06.901Z,0.92
2023-03-15T02:42:07.212Z,1.56
2023-03-15T02:43:06.861Z,3.17
2023-03-15T02:44:06.871Z,1.24
2023-03-15T02:45:06.859Z,2.53
2023-03-15T02:46:06.919Z,1.88
2023-03-15T02:47:06.849Z,1.88
2023-03-15T02:48:06.844Z,3.17
2023-03-15T02:49:06.821Z,5.11
2023-03-15T02:50:06.812Z,1.88
2023-03-15T02:51:06.804Z,1.56
2023-03-15T02:52:07.291Z,1.56
2023-03-15T02:53:06.784Z,1.24
2023-03-15T02:54:06.777Z,1.88
2023-03-15T02:55:06.764Z,3.82
2023-03-15T02:56:06.757Z,2.21
2023-03-15T02:57:07.132Z,-1.34
2023-03-15T02:58:06.749Z,2.21
2023-03-15T02:59:06.717Z,2.53
2023-03-15T03:00:06.719Z,1.88
2023-03-15T03:01:06.747Z,1.56
2023-03-15T03:02:06.727Z,4.46
2023-03-15T03:03:06.689Z,1.88
2023-03-15T03:04:06.701Z,1.56
2023-03-15T03:05:06.656Z,2.53
2023-03-15T03:06:06.653Z,1.88
2023-03-15T03:07:06.668Z,1.88
2023-03-15T03:08:06.646Z,1.88
2023-03-15T03:09:06.638Z,4.46
2023-03-15T03:10:06.629Z,1.88
2023-03-15T03:11:06.625Z,1.88
2023-03-15T03:12:06.600Z,1.56
2023-03-15T03:13:06.585Z,2.53
2023-03-15T03:14:06.590Z,-1.34
2023-03-15T03:15:06.580Z,-1.66
2023-03-15T03:16:06.560Z,4.79
2023-03-15T03:17:06.555Z,2.85
2023-03-15T03:18:07.107Z,1.88
2023-03-15T03:19:06.528Z,5.11
2023-03-15T03:20:06.518Z,4.79
2023-03-15T03:21:06.506Z,1.88
2023-03-15T03:22:06.503Z,-0.37
2023-03-15T03:23:06.825Z,-1.34
2023-03-15T03:24:06.466Z,1.24
2023-03-15T03:25:06.462Z,0.92
2023-03-15T03:26:06.460Z,0.27
2023-03-15T03:27:06.441Z,1.88
2023-03-15T03:28:06.883Z,3.17
2023-03-15T03:29:06.424Z,0.92
2023-03-15T03:30:06.410Z,2.21
2023-03-15T03:31:06.443Z,2.21
2023-03-15T03:32:06.397Z,1.88
2023-03-15T03:33:06.394Z,0.27
2023-03-15T03:34:06.376Z,2.21
2023-03-15T03:35:06.356Z,1.88
2023-03-15T03:36:06.404Z,1.88
2023-03-15T03:37:06.333Z,1.56
2023-03-15T03:38:06.671Z,1.88
2023-03-15T03:39:06.324Z,0.92
2023-03-15T03:40:06.324Z,1.88
2023-03-15T03:41:06.286Z,-0.37
2023-03-15T03:42:06.297Z,3.17
2023-03-15T03:43:06.609Z,2.21
2023-03-15T03:44:06.269Z,-0.05
2023-03-15T03:45:06.267Z,3.50
2023-03-15T03:46:06.263Z,0.60
2023-03-15T03:47:06.235Z,2.21
2023-03-15T03:48:06.543Z,-1.02
2023-03-15T03:49:06.218Z,0.27
2023-03-15T03:50:06.222Z,1.88
2023-03-15T03:51:06.195Z,5.11
2023-03-15T03:52:06.223Z,2.21
2023-03-15T03:53:06.629Z,1.88
2023-03-15T03:54:06.178Z,2.21
2023-03-15T03:55:06.195Z,4.79
2023-03-15T03:56:06.176Z,-1.66
2023-03-15T03:57:06.131Z,3.50
2023-03-15T03:58:06.477Z,1.88
2023-03-15T03:59:06.119Z,4.14
2023-03-15T04:00:06.121Z,2.53
2023-03-15T04:01:06.113Z,2.53
2023-03-15T04:02:06.107Z,2.21
2023-03-15T04:03:06.374Z,-1.34
2023-03-15T04:04:06.085Z,1.24
2023-03-15T04:05:06.049Z,2.21
2023-03-15T04:06:06.069Z,1.56
2023-03-15T04:07:06.044Z,2.85
2023-03-15T04:08:06.070Z,2.85
2023-03-15T04:09:06.015Z,2.53
2023-03-15T04:10:06.022Z,3.50
2023-03-15T04:11:06.004Z,2.21
2023-03-15T04:12:06.057Z,2.21
2023-03-15T04:13:06.285Z,2.21
2023-03-15T04:14:05.979Z,2.53
2023-03-15T04:15:05.961Z,2.85
2023-03-15T04:16:06.028Z,0.92
2023-03-15T04:17:05.944Z,2.85
2023-03-15T04:18:06.285Z,-1.34
2023-03-15T04:19:05.936Z,2.21
2023-03-15T04:20:05.936Z,5.43
2023-03-15T04:21:05.896Z,1.88
2023-03-15T04:22:05.893Z,2.21
2023-03-15T04:23:06.295Z,2.53
2023-03-15T04:24:05.877Z,1.24
2023-03-15T04:25:05.865Z,2.21
2023-03-15T04:26:05.858Z,3.17
2023-03-15T04:27:05.843Z,1.88
2023-03-15T04:28:06.250Z,-1.02
2023-03-15T04:29:05.844Z,0.92
2023-03-15T04:30:05.931Z,1.24
2023-03-15T04:31:05.816Z,1.88
2023-03-15T04:32:05.802Z,1.88
2023-03-15T04:33:05.972Z,1.56
2023-03-15T04:34:05.798Z,1.88
2023-03-15T04:35:05.785Z,2.21
2023-03-15T04:36:05.823Z,2.85
2023-03-15T04:37:05.762Z,-1.66
2023-03-15T04:38:06.127Z,4.14
2023-03-15T04:39:05.746Z,0.27
2023-03-15T04:40:05.724Z,0.92
2023-03-15T04:41:05.713Z,1.24
2023-03-15T04:42:05.708Z,4.14
2023-03-15T04:43:06.175Z,1.88
2023-03-15T04:44:05.718Z,2.53
2023-03-15T04:45:05.679Z,3.50
2023-03-15T04:46:05.675Z,1.88
2023-03-15T04:47:05.709Z,3.82
2023-03-15T04:48:06.012Z,2.85
2023-03-15T04:49:05.636Z,2.53
2023-03-15T04:50:05.629Z,-0.69
2023-03-15T04:51:05.614Z,0.92
2023-03-15T04:52:05.590Z,2.85
2023-03-15T04:53:05.920Z,0.92
2023-03-15T04:54:05.583Z,0.60
2023-03-15T04:55:05.570Z,-1.02
2023-03-15T04:56:05.583Z,0.60
2023-03-15T04:57:05.565Z,-1.34
2023-03-15T04:58:05.832Z,4.79
2023-03-15T04:59:05.542Z,2.53
2023-03-15T05:00:05.511Z,2.21
2023-03-15T05:01:05.541Z,4.79
2023-03-15T05:02:05.516Z,-0.05
2023-03-15T05:03:05.914Z,3.17
2023-03-15T05:04:05.483Z,0.27
2023-03-15T05:05:05.480Z,2.53
2023-03-15T05:06:05.469Z,0.27
2023-03-15T05:07:05.483Z,2.53
2023-03-15T05:08:05.922Z,1.88
2023-03-15T05:09:05.474Z,2.21
2023-03-15T05:10:05.413Z,0.60
2023-03-15T05:11:05.403Z,1.88
2023-03-15T05:12:05.395Z,3.17
2023-03-15T05:13:05.719Z,-0.05
2023-03-15T05:14:05.377Z,3.17
2023-03-15T05:15:05.420Z,1.88
2023-03-15T05:16:05.446Z,2.53
2023-03-15T05:17:05.304Z,2.53
2023-03-15T05:18:05.612Z,2.53
2023-03-15T05:19:05.275Z,1.88
2023-03-15T05:20:05.311Z,2.53
2023-03-15T05:21:05.318Z,1.88
2023-03-15T05:22:05.291Z,2.53
2023-03-15T05:23:05.676Z,2.21
2023-03-15T05:24:05.208Z,2.21
2023-03-15T05:25:05.233Z,1.88
2023-03-15T05:26:05.183Z,5.11
2023-03-15T05:27:05.208Z,2.21
2023-03-15T05:28:05.515Z,5.11
2023-03-15T05:29:05.170Z,2.53
2023-03-15T05:30:05.167Z,1.88
2023-03-15T05:31:05.156Z,2.53
2023-03-15T05:32:05.210Z,2.21
2023-03-15T05:33:05.486Z,2.85
2023-03-15T05:34:05.124Z,5.11
2023-03-15T05:35:05.104Z,2.21
2023-03-15T05:36:05.092Z,-1.02
2023-03-15T05:37:05.090Z,2.85
2023-03-15T05:38:05.381Z,2.53
2023-03-15T05:39:05.055Z,5.75
2023-03-15T05:40:05.054Z,2.53
2023-03-15T05:41:05.051Z,0.92
2023-03-15T05:42:05.023Z,-0.37
2023-03-15T05:43:05.540Z,4.79
2023-03-15T05:44:05.014Z,2.21
2023-03-15T05:45:05.006Z,1.56
2023-03-15T05:46:05.014Z,2.53
2023-03-15T05:47:04.977Z,2.53
2023-03-15T05:48:05.304Z,2.53
2023-03-15T05:49:04.983Z,2.21
2023-03-15T05:50:04.957Z,2.53
2023-03-15T05:51:04.941Z,1.56
2023-03-15T05:52:04.933Z,-1.34
2023-03-15T05:53:05.250Z,2.53
2023-03-15T05:54:04.937Z,3.82
2023-03-15T05:55:04.939Z,2.85
2023-03-15T05:56:04.915Z,1.88
2023-03-15T05:57:04.905Z,1.88
2023-03-15T05:58:04.884Z,2.21
2023-03-15T05:59:04.853Z,2.53
2023-03-15T06:00:04.843Z,5.11
2023-03-15T06:01:04.854Z,1.88
2023-03-15T06:02:04.811Z,2.53
2023-03-15T06:03:05.244Z,3.17
2023-03-15T06:04:04.868Z,1.56
2023-03-15T06:05:04.780Z,1.88
2023-03-15T06:06:05.022Z,2.21
2023-03-15T06:07:04.798Z,2.85
2023-03-15T06:08:05.105Z,2.21
2023-03-15T06:09:04.766Z,0.60
2023-03-15T06:10:04.734Z,2.21
2023-03-15T06:11:04.747Z,2.21
2023-03-15T06:12:04.712Z,2.21
2023-03-15T06:13:05.045Z,1.56
2023-03-15T06:14:04.693Z,5.75
2023-03-15T06:15:04.690Z,-0.37
2023-03-15T06:16:04.664Z,3.17
2023-03-15T06:17:04.664Z,2.53
2023-03-15T06:18:04.643Z,2.85
2023-03-15T06:19:04.715Z,1.24
2023-03-15T06:20:04.791Z,2.21
2023-03-15T06:21:04.630Z,5.75
2023-03-15T06:22:04.624Z,2.85
2023-03-15T06:23:04.621Z,2.21
2023-03-15T06:24:04.602Z,1.56
2023-03-15T06:25:04.579Z,2.21
2023-03-15T06:26:04.563Z,-1.02
2023-03-15T06:27:04.574Z,3.50
2023-03-15T06:28:04.542Z,2.21
2023-03-15T06:29:04.944Z,2.21
2023-03-15T06:30:04.533Z,4.14
2023-03-15T06:31:04.577Z,4.46
2023-03-15T06:32:04.503Z,-0.69
2023-03-15T06:33:04.544Z,4.14
2023-03-15T06:34:04.816Z,-0.05
2023-03-15T06:35:04.476Z,2.85
2023-03-15T06:36:04.533Z,-0.37
2023-03-15T06:37:04.475Z,1.88
2023-03-15T06:38:04.456Z,1.88
2023-03-15T06:39:04.804Z,3.50
2023-03-15T06:40:04.450Z,4.46
2023-03-15T06:41:04.433Z,2.21
2023-03-15T06:42:04.417Z,2.53
2023-03-15T06:43:04.400Z,1.88
2023-03-15T06:44:04.740Z,4.14
2023-03-15T06:45:04.436Z,2.21
2023-03-15T06:46:04.405Z,1.88
2023-03-15T06:47:04.362Z,2.53
2023-03-15T06:48:04.336Z,1.88
2023-03-15T06:49:04.674Z,5.43
2023-03-15T06:50:04.373Z,4.46
2023-03-15T06:51:04.319Z,-1.02
2023-03-15T06:52:04.309Z,-0.69
2023-03-15T06:53:04.289Z,1.56
2023-03-15T06:54:04.302Z,2.85
2023-03-15T06:55:04.308Z,4.79
2023-03-15T06:56:04.261Z,2.21
2023-03-15T06:57:04.257Z,1.88
2023-03-15T06:58:04.232Z,1.88
2023-03-15T06:59:04.572Z,3.82
2023-03-15T07:00:04.229Z,0.27
2023-03-15T07:01:04.211Z,-0.37
2023-03-15T07:02:04.215Z,2.53
2023-03-15T07:03:04.307Z,1.88
2023-03-15T07:04:05.629Z,2.21
2023-03-15T07:05:04.180Z,-1.02
2023-03-15T07:06:04.180Z,1.56
2023-03-15T07:07:04.148Z,2.85
2023-03-15T07:08:04.150Z,2.21
2023-03-15T07:09:04.527Z,2.53
2023-03-15T07:10:04.130Z,1.24
2023-03-15T07:11:04.128Z,0.60
2023-03-15T07:12:04.102Z,0.60
2023-03-15T07:13:04.089Z,3.50
2023-03-15T07:14:04.405Z,1.56
2023-03-15T07:15:04.132Z,3.17
2023-03-15T07:16:04.082Z,4.79
2023-03-15T07:17:04.043Z,1.24
2023-03-15T07:18:04.057Z,-1.02
2023-03-15T07:19:04.224Z,2.53
2023-03-15T07:20:04.025Z,1.88
2023-03-15T07:21:04.020Z,-0.69
2023-03-15T07:22:04.006Z,1.88
2023-03-15T07:23:04.002Z,2.85
2023-03-15T07:24:10.367Z,1.88
2023-03-15T07:25:03.970Z,-1.02
2023-03-15T07:26:04.645Z,4.79
2023-03-15T07:27:03.948Z,5.75
2023-03-15T07:28:03.929Z,2.21
2023-03-15T07:29:04.728Z,2.85
2023-03-15T07:30:03.907Z,2.53
2023-03-15T07:31:03.932Z,1.88
2023-03-15T07:32:03.925Z,-1.02
2023-03-15T07:33:03.999Z,2.53
2023-03-15T07:34:04.211Z,2.85
2023-03-15T07:35:03.864Z,1.56
2023-03-15T07:36:03.898Z,0.92
2023-03-15T07:37:03.842Z,2.85
2023-03-15T07:38:03.839Z,0.27
2023-03-15T07:39:04.032Z,2.53
2023-03-15T07:40:03.837Z,2.85
2023-03-15T07:41:03.818Z,3.17
2023-03-15T07:42:03.788Z,2.85
2023-03-15T07:43:03.775Z,2.53
2023-03-15T07:44:04.338Z,1.88
2023-03-15T07:45:03.785Z,1.88
2023-03-15T07:46:03.742Z,2.53
2023-03-15T07:47:03.732Z,2.53
2023-03-15T07:48:03.720Z,2.85
2023-03-15T07:49:04.045Z,1.88
2023-03-15T07:50:03.720Z,0.92
2023-03-15T07:51:03.701Z,-1.02
2023-03-15T07:52:03.704Z,3.50
2023-03-15T07:53:03.682Z,0.60
2023-03-15T07:54:04.015Z,2.21
2023-03-15T07:55:03.656Z,1.56
2023-03-15T07:56:03.645Z,1.88
2023-03-15T07:57:03.640Z,0.60
2023-03-15T07:58:03.629Z,5.11
2023-03-15T07:59:03.940Z,5.11
2023-03-15T08:00:03.598Z,5.75
2023-03-15T08:01:03.588Z,5.11
2023-03-15T08:02:03.646Z,4.79
2023-03-15T08:03:03.614Z,0.60
2023-03-15T08:04:03.862Z,4.46
2023-03-15T08:05:03.673Z,4.46
2023-03-15T08:06:03.529Z,3.50
2023-03-15T08:07:03.546Z,4.14
2023-03-15T08:08:03.515Z,2.85
2023-03-15T08:09:04.050Z,4.79
2023-03-15T08:10:03.503Z,8.33
2023-03-15T08:11:03.485Z,5.11
2023-03-15T08:12:03.472Z,5.75
2023-03-15T08:13:03.492Z,5.43
2023-03-15T08:14:03.717Z,5.11
2023-03-15T08:15:03.453Z,6.72
2023-03-15T08:16:03.503Z,5.43
2023-03-15T08:17:03.432Z,3.50
2023-03-15T08:18:05.795Z,6.40
2023-03-15T08:19:03.442Z,6.40
2023-03-15T08:20:03.391Z,5.75
2023-03-15T08:21:03.395Z,3.82
2023-03-15T08:22:03.382Z,5.75
2023-03-15T08:23:03.372Z,4.79
2023-03-15T08:24:03.715Z,5.11
2023-03-15T08:25:03.371Z,2.53
2023-03-15T08:26:03.352Z,7.04
2023-03-15T08:27:03.326Z,5.43
2023-03-15T08:28:03.331Z,5.43
2023-03-15T08:29:03.331Z,4.46
2023-03-15T08:30:03.289Z,5.11
2023-03-15T08:31:03.285Z,1.88
2023-03-15T08:32:03.339Z,3.82
2023-03-15T08:33:03.334Z,-2.95
2023-03-15T08:34:03.538Z,4.14
2023-03-15T08:35:03.252Z,7.69
2023-03-15T08:36:03.309Z,4.79
2023-03-15T08:37:03.242Z,4.14
2023-03-15T08:38:03.215Z,3.82
2023-03-15T08:39:03.521Z,3.50
2023-03-15T08:40:03.293Z,2.85
2023-03-15T08:41:03.188Z,3.50
2023-03-15T08:42:03.181Z,3.17
2023-03-15T08:43:03.163Z,3.17
2023-03-15T08:44:03.513Z,0.92
2023-03-15T08:45:03.161Z,2.85
2023-03-15T08:46:03.215Z,0.92
2023-03-15T08:47:03.116Z,3.82
2023-03-15T08:48:03.121Z,2.53
2023-03-15T08:49:03.642Z,3.17
2023-03-15T08:50:03.086Z,2.53
2023-03-15T08:51:03.086Z,5.11
2023-03-15T08:52:03.088Z,2.21
2023-03-15T08:53:03.059Z,-0.05
2023-03-15T08:54:03.076Z,2.53
2023-03-15T08:55:03.070Z,2.53
2023-03-15T08:56:03.041Z,5.43
2023-03-15T08:57:03.014Z,6.40
2023-03-15T08:58:04.720Z,1.24
2023-03-15T08:59:03.303Z,1.24
2023-03-15T09:00:03.010Z,2.21
2023-03-15T09:01:02.968Z,-0.69
2023-03-15T09:02:03.008Z,3.17
2023-03-15T09:03:02.967Z,3.17
2023-03-15T09:04:03.354Z,1.88
2023-03-15T09:05:02.948Z,3.17
2023-03-15T09:06:02.930Z,2.53
2023-03-15T09:07:02.914Z,2.53
2023-03-15T09:08:03.034Z,3.82
2023-03-15T09:09:02.891Z,3.50
2023-03-15T09:10:05.403Z,3.17
2023-03-15T09:11:02.897Z,3.17
2023-03-15T09:12:02.858Z,2.85
2023-03-15T09:13:02.857Z,2.21
2023-03-15T09:14:02.844Z,4.14
2023-03-15T09:15:02.839Z,1.88
2023-03-15T09:16:02.835Z,3.50
2023-03-15T09:17:02.862Z,4.14
2023-03-15T09:18:02.809Z,4.14
2023-03-15T09:19:02.816Z,4.46
2023-03-15T09:20:03.178Z,5.11
2023-03-15T09:21:02.791Z,6.07
2023-03-15T09:22:16.367Z,4.79
2023-03-15T09:23:02.762Z,6.07
2023-03-15T09:24:02.775Z,8.01
2023-03-15T09:25:03.172Z,8.01
2023-03-15T09:26:02.728Z,9.30
2023-03-15T09:27:02.743Z,9.62
2023-03-15T09:28:02.732Z,9.94
2023-03-15T09:29:02.704Z,11.23
2023-03-15T09:30:03.045Z,10.26
2023-03-15T09:31:02.720Z,10.26
2023-03-15T09:32:02.674Z,6.40
2023-03-15T09:33:02.710Z,9.62
2023-03-15T09:34:02.648Z,8.65
2023-03-15T09:35:02.975Z,9.30
2023-03-15T09:36:02.721Z,8.01
2023-03-15T09:37:02.617Z,8.97
2023-03-15T09:38:02.620Z,12.52
2023-03-15T09:39:02.615Z,9.30
2023-03-15T09:40:03.382Z,11.23
2023-03-15T09:41:02.582Z,8.33
2023-03-15T09:42:04.230Z,8.97
2023-03-15T09:43:02.563Z,10.59
2023-03-15T09:44:02.548Z,7.36
2023-03-15T09:45:02.955Z,8.97
2023-03-15T09:46:02.535Z,5.11
2023-03-15T09:47:02.521Z,8.97
2023-03-15T09:48:02.528Z,8.65
2023-03-15T09:49:02.494Z,5.75
2023-03-15T09:50:02.866Z,3.82
2023-03-15T09:51:02.476Z,8.65
2023-03-15T09:52:02.474Z,9.62
2023-03-15T09:53:02.456Z,12.52
2023-03-15T09:54:02.472Z,8.65
2023-03-15T09:55:03.170Z,7.69
2023-03-15T09:56:02.425Z,6.72
2023-03-15T09:57:02.442Z,6.72
2023-03-15T09:58:02.428Z,0.92
2023-03-15T09:59:02.383Z,6.40
2023-03-15T10:00:02.716Z,5.43
2023-03-15T10:01:02.384Z,8.65
2023-03-15T10:02:02.432Z,3.82
2023-03-15T10:03:02.344Z,6.07
2023-03-15T10:04:02.403Z,5.75
2023-03-15T10:05:02.625Z,8.33
2023-03-15T10:06:02.328Z,3.50
2023-03-15T10:07:02.325Z,4.46
2023-03-15T10:08:02.310Z,6.40
2023-03-15T10:09:02.289Z,7.36
2023-03-15T10:10:03.020Z,7.36
2023-03-15T10:11:02.274Z,8.01
2023-03-15T10:12:02.270Z,6.72
2023-03-15T10:13:02.254Z,6.40
2023-03-15T10:14:02.247Z,7.04
2023-03-15T10:15:02.582Z,5.75
2023-03-15T10:16:02.313Z,6.07
2023-03-15T10:17:02.211Z,5.75
2023-03-15T10:18:02.214Z,3.17
2023-03-15T10:19:02.196Z,7.04
2023-03-15T10:20:02.492Z,6.07
2023-03-15T10:21:02.160Z,6.07
2023-03-15T10:22:02.164Z,5.43
2023-03-15T10:23:02.144Z,6.07
2023-03-15T10:24:02.137Z,2.53
2023-03-15T10:25:02.142Z,6.40
2023-03-15T10:26:02.124Z,6.40
2023-03-15T10:27:02.123Z,9.62
2023-03-15T10:28:02.103Z,5.11
2023-03-15T10:29:02.086Z,11.87
2023-03-15T10:30:02.406Z,5.75
2023-03-15T10:31:02.099Z,7.04
2023-03-15T10:32:02.129Z,9.94
2023-03-15T10:33:02.093Z,9.30
2023-03-15T10:34:02.034Z,12.20
2023-03-15T10:35:02.390Z,8.33
2023-03-15T10:36:11.036Z,8.97
2023-03-15T10:37:02.007Z,8.97
2023-03-15T10:38:01.987Z,9.62
2023-03-15T10:39:01.979Z,11.55
2023-03-15T10:40:02.871Z,11.55
2023-03-15T10:41:01.956Z,8.01
2023-03-15T10:42:01.962Z,8.65
2023-03-15T10:43:01.930Z,8.65
2023-03-15T10:44:01.929Z,8.65
2023-03-15T10:45:01.926Z,8.65
2023-03-15T10:46:01.908Z,8.33
2023-03-15T10:47:05.055Z,8.01
2023-03-15T10:48:01.922Z,5.75
2023-03-15T10:49:01.870Z,3.82
2023-03-15T10:50:02.210Z,5.43
2023-03-15T10:51:01.850Z,6.72
2023-03-15T10:52:01.843Z,8.33
2023-03-15T10:53:01.824Z,5.11
2023-03-15T10:54:01.826Z,8.33
2023-03-15T10:55:04.548Z,8.01
2023-03-15T10:56:01.803Z,11.87
2023-03-15T10:57:01.782Z,7.36
2023-03-15T10:58:01.800Z,7.69
2023-03-15T10:59:12.330Z,11.23
2023-03-15T11:00:02.281Z,7.36
2023-03-15T11:01:01.742Z,12.84
2023-03-15T11:02:01.885Z,12.84
2023-03-15T11:03:01.807Z,9.94
2023-03-15T11:04:01.726Z,10.59
2023-03-15T11:05:02.050Z,11.55
2023-03-15T11:06:01.703Z,14.45
2023-03-15T11:07:01.682Z,13.49
2023-03-15T11:08:01.674Z,13.49
2023-03-15T11:09:01.672Z,10.26
2023-03-15T11:10:02.413Z,13.16
2023-03-15T11:11:01.645Z,12.20
2023-03-15T11:12:01.635Z,12.20
2023-03-15T11:13:01.624Z,10.26
2023-03-15T11:14:01.638Z,11.87
2023-03-15T11:15:01.890Z,12.84
2023-03-15T11:16:01.633Z,12.84
2023-03-15T11:17:01.577Z,13.81
2023-03-15T11:18:01.571Z,10.26
2023-03-15T11:19:01.616Z,14.45
2023-03-15T11:20:02.086Z,14.45
2023-03-15T11:21:01.549Z,17.03
2023-03-15T11:22:01.527Z,11.87
2023-03-15T11:23:01.508Z,11.87
2023-03-15T11:24:01.531Z,10.91
2023-03-15T11:25:02.424Z,10.91
2023-03-15T11:26:01.498Z,9.30
2023-03-15T11:27:01.493Z,12.52
2023-03-15T11:28:01.497Z,8.01
2023-03-15T11:29:01.481Z,7.36
2023-03-15T11:30:01.818Z,8.33
2023-03-15T11:31:01.429Z,7.69
2023-03-15T11:32:01.432Z,7.36
2023-03-15T11:33:01.441Z,8.65
2023-03-15T11:34:01.405Z,10.59
2023-03-15T11:35:01.767Z,11.55
2023-03-15T11:36:01.420Z,11.55
2023-03-15T11:37:08.487Z,12.20
2023-03-15T11:38:13.070Z,13.16
2023-03-15T11:39:03.007Z,13.81
2023-03-15T11:40:11.246Z,14.45
2023-03-15T11:41:01.338Z,14.45
2023-03-15T11:42:01.320Z,14.13
2023-03-15T11:43:01.308Z,15.10
2023-03-15T11:44:01.305Z,14.78
2023-03-15T11:45:01.304Z,13.81
2023-03-15T11:46:01.342Z,16.06
2023-03-15T11:47:01.263Z,12.84
2023-03-15T11:48:01.275Z,11.87
2023-03-15T11:49:01.270Z,10.59
2023-03-15T11:50:01.253Z,11.55
2023-03-15T11:51:01.229Z,13.16
2023-03-15T11:52:01.220Z,12.52
2023-03-15T11:53:01.202Z,13.49
2023-03-15T11:54:01.193Z,10.59
2023-03-15T11:55:01.922Z,13.16
2023-03-15T11:56:01.176Z,11.55
2023-03-15T11:57:01.159Z,11.23
2023-03-15T11:58:01.176Z,14.45
2023-03-15T11:59:01.208Z,11.23
2023-03-15T12:00:01.517Z,11.87
2023-03-15T12:01:01.128Z,13.49
2023-03-15T12:02:01.155Z,13.16
2023-03-15T12:03:01.165Z,16.06
2023-03-15T12:04:01.114Z,11.87
2023-03-15T12:05:09.252Z,13.16
2023-03-15T12:06:01.093Z,11.23
2023-03-15T12:07:01.071Z,11.87
2023-03-15T12:08:01.050Z,11.23
2023-03-15T12:09:01.046Z,10.91
2023-03-15T12:10:01.724Z,11.87
2023-03-15T12:11:01.020Z,11.23
2023-03-15T12:12:01.019Z,11.23
2023-03-15T12:13:00.991Z,11.87
2023-03-15T12:14:01.008Z,11.87
2023-03-15T12:15:01.002Z,11.87
2023-03-15T12:16:00.979Z,9.30
2023-03-15T12:17:00.952Z,10.59
2023-03-15T12:18:00.949Z,12.20
2023-03-15T12:19:00.929Z,8.01
2023-03-15T12:20:01.272Z,11.23
2023-03-15T12:21:00.963Z,11.55
2023-03-15T12:22:00.917Z,10.59
2023-03-15T12:23:00.894Z,8.65
2023-03-15T12:24:00.878Z,9.94
2023-03-15T12:25:01.646Z,7.36
2023-03-15T12:26:00.857Z,9.94
2023-03-15T12:27:00.861Z,9.62
2023-03-15T12:28:00.847Z,7.36
2023-03-15T12:29:00.829Z,10.91
2023-03-15T12:30:01.340Z,11.23
2023-03-15T12:31:00.842Z,11.55
2023-03-15T12:32:00.797Z,11.87
2023-03-15T12:33:00.854Z,10.59
2023-03-15T12:34:00.770Z,10.59
2023-03-15T12:35:01.120Z,5.75
2023-03-15T12:36:00.794Z,9.30
2023-03-15T12:37:00.775Z,9.62
2023-03-15T12:38:00.759Z,9.94
2023-03-15T12:39:00.724Z,9.94
2023-03-15T12:40:01.151Z,11.55
2023-03-15T12:41:00.694Z,10.91
2023-03-15T12:42:00.769Z,9.94
2023-03-15T12:43:00.679Z,11.23
2023-03-15T12:44:00.670Z,10.59
2023-03-15T12:45:00.647Z,11.23
2023-03-15T12:46:00.701Z,14.78
2023-03-15T12:47:00.651Z,11.87
2023-03-15T12:48:00.644Z,13.16
2023-03-15T12:49:00.608Z,11.55
2023-03-15T12:50:00.612Z,12.52
2023-03-15T12:51:00.612Z,11.23
2023-03-15T12:52:00.581Z,9.30
2023-03-15T12:53:00.587Z,14.45
2023-03-15T12:54:00.564Z,13.49
2023-03-15T12:55:00.566Z,13.16
2023-03-15T12:56:08.492Z,14.78
2023-03-15T12:57:00.622Z,15.74
2023-03-15T12:58:00.517Z,15.42
2023-03-15T12:59:00.507Z,14.13
2023-03-15T13:00:00.569Z,14.13
2023-03-15T13:01:00.550Z,14.78
2023-03-15T13:02:00.495Z,14.78
2023-03-15T13:03:02.025Z,16.06
2023-03-15T13:04:00.453Z,16.39
2023-03-15T13:05:00.454Z,17.35
2023-03-15T13:06:04.530Z,16.06
2023-03-15T13:07:00.423Z,13.81
2023-03-15T13:08:00.423Z,16.39
2023-03-15T13:09:00.411Z,12.20
2023-03-15T13:10:00.407Z,18.00
2023-03-15T13:11:00.416Z,15.42
2023-03-15T13:12:00.399Z,16.39
2023-03-15T13:13:00.366Z,14.13
2023-03-15T13:14:00.359Z,14.78
2023-03-15T13:15:00.359Z,17.03